sensor_id;sensor_type;location;lat;lon;timestamp;P1;durP1;ratioP1;P2;durP2;ratioP2
57627;SDS011;43451;49.060;10.616;2022-10-31T00:00:29;7.18;;;5.13;;
57627;SDS011;43451;49.060;10.616;2022-10-31T00:02:55;10.48;;;5.88;;
57627;SDS011;43451;49.060;10.616;2022-10-31T00:05:21;11.80;;;6.18;;
57627;SDS011;43451;49.060;10.616;2022-10-31T00:07:46;13.13;;;6.38;;
57627;SDS011;43451;49.060;10.616;2022-10-31T00:10:12;9.15;;;4.97;;
57627;SDS011;43451;49.060;10.616;2022-10-31T00:12:37;8.00;;;5.40;;
57627;SDS011;43451;49.060;10.616;2022-10-31T00:15:03;12.10;;;5.70;;
57627;SDS011;43451;49.060;10.616;2022-10-31T00:17:28;9.98;;;4.68;;
57627;SDS011;43451;49.060;10.616;2022-10-31T00:19:54;10.77;;;4.18;;
57627;SDS011;43451;49.060;10.616;2022-10-31T00:22:19;5.25;;;4.38;;
57627;SDS011;43451;49.060;10.616;2022-10-31T00:24:45;7.57;;;4.55;;
57627;SDS011;43451;49.060;10.616;2022-10-31T00:27:10;6.00;;;4.40;;
57627;SDS011;43451;49.060;10.616;2022-10-31T00:29:35;7.88;;;4.70;;
57627;SDS011;43451;49.060;10.616;2022-10-31T00:32:01;10.45;;;4.90;;
57627;SDS011;43451;49.060;10.616;2022-10-31T00:34:26;9.93;;;5.32;;
57627;SDS011;43451;49.060;10.616;2022-10-31T00:36:52;10.35;;;4.80;;
57627;SDS011;43451;49.060;10.616;2022-10-31T00:39:17;11.75;;;5.30;;
57627;SDS011;43451;49.060;10.616;2022-10-31T00:41:42;8.15;;;5.53;;
57627;SDS011;43451;49.060;10.616;2022-10-31T00:44:08;9.77;;;5.50;;
57627;SDS011;43451;49.060;10.616;2022-10-31T00:46:33;10.25;;;5.10;;
57627;SDS011;43451;49.060;10.616;2022-10-31T00:48:59;7.28;;;4.60;;
57627;SDS011;43451;49.060;10.616;2022-10-31T00:51:24;5.88;;;3.97;;
57627;SDS011;43451;49.060;10.616;2022-10-31T00:53:50;9.27;;;4.75;;
57627;SDS011;43451;49.060;10.616;2022-10-31T00:56:15;6.63;;;5.13;;
57627;SDS011;43451;49.060;10.616;2022-10-31T00:58:41;9.15;;;4.82;;
57627;SDS011;43451;49.060;10.616;2022-10-31T01:01:06;7.05;;;5.18;;
57627;SDS011;43451;49.060;10.616;2022-10-31T01:03:32;8.45;;;4.75;;
57627;SDS011;43451;49.060;10.616;2022-10-31T01:06:03;7.40;;;4.95;;
57627;SDS011;43451;49.060;10.616;2022-10-31T01:08:29;7.47;;;5.00;;
57627;SDS011;43451;49.060;10.616;2022-10-31T01:11:06;6.22;;;4.90;;
57627;SDS011;43451;49.060;10.616;2022-10-31T01:13:35;8.52;;;4.75;;
57627;SDS011;43451;49.060;10.616;2022-10-31T01:16:01;7.05;;;4.68;;
57627;SDS011;43451;49.060;10.616;2022-10-31T01:18:28;6.13;;;3.63;;
57627;SDS011;43451;49.060;10.616;2022-10-31T01:23:34;5.38;;;4.13;;
57627;SDS011;43451;49.060;10.616;2022-10-31T01:28:27;5.97;;;3.80;;
57627;SDS011;43451;49.060;10.616;2022-10-31T01:30:53;11.50;;;4.38;;
57627;SDS011;43451;49.060;10.616;2022-10-31T01:33:18;5.07;;;3.42;;
57627;SDS011;43451;49.060;10.616;2022-10-31T01:35:44;4.88;;;3.70;;
57627;SDS011;43451;49.060;10.616;2022-10-31T01:38:09;5.00;;;4.10;;
57627;SDS011;43451;49.060;10.616;2022-10-31T01:40:34;4.20;;;3.80;;
57627;SDS011;43451;49.060;10.616;2022-10-31T01:43:00;7.47;;;4.07;;
57627;SDS011;43451;49.060;10.616;2022-10-31T01:45:25;8.77;;;4.45;;
57627;SDS011;43451;49.060;10.616;2022-10-31T01:47:51;5.88;;;4.38;;
57627;SDS011;43451;49.060;10.616;2022-10-31T01:50:31;4.80;;;4.30;;
57627;SDS011;43451;49.060;10.616;2022-10-31T01:53:00;4.25;;;3.83;;
57627;SDS011;43451;49.060;10.616;2022-10-31T01:55:28;8.30;;;4.40;;
57627;SDS011;43451;49.060;10.616;2022-10-31T01:57:59;6.45;;;4.50;;
57627;SDS011;43451;49.060;10.616;2022-10-31T02:00:29;4.97;;;4.45;;
57627;SDS011;43451;49.060;10.616;2022-10-31T02:02:55;5.68;;;4.15;;
57627;SDS011;43451;49.060;10.616;2022-10-31T02:05:22;5.25;;;4.55;;
57627;SDS011;43451;49.060;10.616;2022-10-31T02:10:19;4.65;;;4.18;;
57627;SDS011;43451;49.060;10.616;2022-10-31T02:12:53;7.20;;;4.50;;
57627;SDS011;43451;49.060;10.616;2022-10-31T02:15:21;6.60;;;4.10;;
57627;SDS011;43451;49.060;10.616;2022-10-31T02:17:47;6.55;;;4.72;;
57627;SDS011;43451;49.060;10.616;2022-10-31T02:20:17;6.45;;;4.80;;
57627;SDS011;43451;49.060;10.616;2022-10-31T02:39:49;5.53;;;4.15;;
57627;SDS011;43451;49.060;10.616;2022-10-31T02:42:42;6.25;;;4.80;;
57627;SDS011;43451;49.060;10.616;2022-10-31T02:47:58;6.50;;;4.43;;
57627;SDS011;43451;49.060;10.616;2022-10-31T02:50:29;6.07;;;4.65;;
57627;SDS011;43451;49.060;10.616;2022-10-31T02:52:58;7.13;;;4.40;;
57627;SDS011;43451;49.060;10.616;2022-10-31T02:57:53;5.40;;;4.00;;
57627;SDS011;43451;49.060;10.616;2022-10-31T03:00:22;4.30;;;3.85;;
57627;SDS011;43451;49.060;10.616;2022-10-31T03:11:06;4.35;;;3.55;;
57627;SDS011;43451;49.060;10.616;2022-10-31T03:13:41;5.00;;;3.65;;
57627;SDS011;43451;49.060;10.616;2022-10-31T03:18:50;8.55;;;4.90;;
57627;SDS011;43451;49.060;10.616;2022-10-31T03:23:51;11.00;;;5.53;;
57627;SDS011;43451;49.060;10.616;2022-10-31T03:26:19;5.25;;;3.45;;
57627;SDS011;43451;49.060;10.616;2022-10-31T03:28:55;5.53;;;3.90;;
57627;SDS011;43451;49.060;10.616;2022-10-31T03:31:26;5.43;;;4.18;;
57627;SDS011;43451;49.060;10.616;2022-10-31T03:33:56;10.40;;;4.63;;
57627;SDS011;43451;49.060;10.616;2022-10-31T03:36:25;7.40;;;5.20;;
57627;SDS011;43451;49.060;10.616;2022-10-31T03:38:53;7.75;;;4.55;;
57627;SDS011;43451;49.060;10.616;2022-10-31T03:41:21;7.65;;;5.18;;
57627;SDS011;43451;49.060;10.616;2022-10-31T03:43:55;11.93;;;5.32;;
57627;SDS011;43451;49.060;10.616;2022-10-31T03:46:25;6.45;;;4.97;;
57627;SDS011;43451;49.060;10.616;2022-10-31T03:48:52;7.60;;;5.10;;
57627;SDS011;43451;49.060;10.616;2022-10-31T03:51:53;9.25;;;5.43;;
57627;SDS011;43451;49.060;10.616;2022-10-31T03:59:44;9.88;;;5.15;;
57627;SDS011;43451;49.060;10.616;2022-10-31T04:02:16;8.13;;;5.40;;
57627;SDS011;43451;49.060;10.616;2022-10-31T04:04:45;9.43;;;5.20;;
57627;SDS011;43451;49.060;10.616;2022-10-31T04:07:13;7.20;;;4.97;;
57627;SDS011;43451;49.060;10.616;2022-10-31T04:09:42;7.97;;;4.68;;
57627;SDS011;43451;49.060;10.616;2022-10-31T04:12:10;6.93;;;5.03;;
57627;SDS011;43451;49.060;10.616;2022-10-31T04:14:40;10.52;;;5.10;;
57627;SDS011;43451;49.060;10.616;2022-10-31T04:17:08;7.85;;;5.30;;
57627;SDS011;43451;49.060;10.616;2022-10-31T04:19:38;9.95;;;5.07;;
57627;SDS011;43451;49.060;10.616;2022-10-31T04:22:03;7.28;;;4.70;;
57627;SDS011;43451;49.060;10.616;2022-10-31T04:24:28;9.18;;;5.15;;
57627;SDS011;43451;49.060;10.616;2022-10-31T04:26:54;7.82;;;5.28;;
57627;SDS011;43451;49.060;10.616;2022-10-31T04:29:19;9.38;;;5.57;;
57627;SDS011;43451;49.060;10.616;2022-10-31T04:31:45;8.13;;;5.25;;
57627;SDS011;43451;49.060;10.616;2022-10-31T04:34:10;9.07;;;5.00;;
57627;SDS011;43451;49.060;10.616;2022-10-31T04:36:36;6.65;;;5.07;;
57627;SDS011;43451;49.060;10.616;2022-10-31T04:39:01;9.15;;;5.07;;
57627;SDS011;43451;49.060;10.616;2022-10-31T04:41:27;8.25;;;5.13;;
57627;SDS011;43451;49.060;10.616;2022-10-31T04:43:52;7.32;;;5.05;;
57627;SDS011;43451;49.060;10.616;2022-10-31T04:46:17;7.68;;;5.18;;
57627;SDS011;43451;49.060;10.616;2022-10-31T04:48:43;6.57;;;5.10;;
57627;SDS011;43451;49.060;10.616;2022-10-31T04:51:08;7.78;;;5.07;;
57627;SDS011;43451;49.060;10.616;2022-10-31T04:53:34;6.78;;;4.88;;
57627;SDS011;43451;49.060;10.616;2022-10-31T04:55:59;6.18;;;4.97;;
57627;SDS011;43451;49.060;10.616;2022-10-31T04:58:26;6.00;;;5.13;;
57627;SDS011;43451;49.060;10.616;2022-10-31T05:00:52;6.05;;;4.75;;
57627;SDS011;43451;49.060;10.616;2022-10-31T05:03:18;7.97;;;5.00;;
57627;SDS011;43451;49.060;10.616;2022-10-31T05:05:44;7.05;;;5.30;;
57627;SDS011;43451;49.060;10.616;2022-10-31T05:08:09;7.18;;;5.38;;
57627;SDS011;43451;49.060;10.616;2022-10-31T05:10:35;6.05;;;4.95;;
57627;SDS011;43451;49.060;10.616;2022-10-31T05:13:01;5.82;;;4.82;;
57627;SDS011;43451;49.060;10.616;2022-10-31T05:15:28;5.65;;;5.05;;
57627;SDS011;43451;49.060;10.616;2022-10-31T05:17:54;5.75;;;5.15;;
57627;SDS011;43451;49.060;10.616;2022-10-31T05:20:21;6.72;;;5.20;;
57627;SDS011;43451;49.060;10.616;2022-10-31T05:22:49;11.13;;;5.47;;
57627;SDS011;43451;49.060;10.616;2022-10-31T05:25:16;7.28;;;5.75;;
57627;SDS011;43451;49.060;10.616;2022-10-31T05:27:44;8.95;;;5.93;;
57627;SDS011;43451;49.060;10.616;2022-10-31T05:30:11;14.50;;;5.70;;
57627;SDS011;43451;49.060;10.616;2022-10-31T05:32:42;7.53;;;5.85;;
57627;SDS011;43451;49.060;10.616;2022-10-31T05:35:10;5.90;;;5.07;;
57627;SDS011;43451;49.060;10.616;2022-10-31T05:37:38;6.07;;;5.25;;
57627;SDS011;43451;49.060;10.616;2022-10-31T05:40:04;6.10;;;4.97;;
57627;SDS011;43451;49.060;10.616;2022-10-31T05:42:30;5.93;;;5.00;;
57627;SDS011;43451;49.060;10.616;2022-10-31T05:44:56;5.95;;;4.78;;
57627;SDS011;43451;49.060;10.616;2022-10-31T05:47:21;5.75;;;4.75;;
57627;SDS011;43451;49.060;10.616;2022-10-31T05:49:47;7.68;;;5.07;;
57627;SDS011;43451;49.060;10.616;2022-10-31T05:52:12;7.70;;;4.95;;
57627;SDS011;43451;49.060;10.616;2022-10-31T05:54:38;6.20;;;4.97;;
57627;SDS011;43451;49.060;10.616;2022-10-31T05:57:04;6.88;;;5.28;;
57627;SDS011;43451;49.060;10.616;2022-10-31T05:59:29;6.60;;;5.20;;
57627;SDS011;43451;49.060;10.616;2022-10-31T06:01:54;6.57;;;5.22;;
57627;SDS011;43451;49.060;10.616;2022-10-31T06:04:20;6.85;;;5.07;;
57627;SDS011;43451;49.060;10.616;2022-10-31T06:06:45;6.47;;;5.03;;
57627;SDS011;43451;49.060;10.616;2022-10-31T06:09:11;6.25;;;5.20;;
57627;SDS011;43451;49.060;10.616;2022-10-31T06:11:37;6.72;;;5.22;;
57627;SDS011;43451;49.060;10.616;2022-10-31T06:14:03;7.25;;;5.20;;
57627;SDS011;43451;49.060;10.616;2022-10-31T06:16:29;7.18;;;5.75;;
57627;SDS011;43451;49.060;10.616;2022-10-31T06:18:54;7.47;;;6.05;;
57627;SDS011;43451;49.060;10.616;2022-10-31T06:21:20;9.05;;;5.25;;
57627;SDS011;43451;49.060;10.616;2022-10-31T06:23:45;8.52;;;5.63;;
57627;SDS011;43451;49.060;10.616;2022-10-31T06:26:11;13.10;;;10.70;;
57627;SDS011;43451;49.060;10.616;2022-10-31T06:28:36;8.43;;;6.18;;
57627;SDS011;43451;49.060;10.616;2022-10-31T06:31:01;5.93;;;5.13;;
57627;SDS011;43451;49.060;10.616;2022-10-31T06:33:27;6.43;;;5.18;;
57627;SDS011;43451;49.060;10.616;2022-10-31T06:35:52;7.50;;;4.75;;
57627;SDS011;43451;49.060;10.616;2022-10-31T06:38:18;7.03;;;5.18;;
57627;SDS011;43451;49.060;10.616;2022-10-31T06:40:43;7.15;;;5.15;;
57627;SDS011;43451;49.060;10.616;2022-10-31T06:43:09;5.63;;;4.88;;
57627;SDS011;43451;49.060;10.616;2022-10-31T06:45:36;6.00;;;5.38;;
57627;SDS011;43451;49.060;10.616;2022-10-31T06:48:01;7.00;;;5.75;;
57627;SDS011;43451;49.060;10.616;2022-10-31T06:50:27;12.70;;;7.80;;
57627;SDS011;43451;49.060;10.616;2022-10-31T06:52:53;15.63;;;9.85;;
57627;SDS011;43451;49.060;10.616;2022-10-31T06:55:20;11.63;;;8.45;;
57627;SDS011;43451;49.060;10.616;2022-10-31T07:00:26;11.40;;;7.82;;
57627;SDS011;43451;49.060;10.616;2022-10-31T07:02:54;15.82;;;10.20;;
57627;SDS011;43451;49.060;10.616;2022-10-31T07:05:23;20.85;;;12.43;;
57627;SDS011;43451;49.060;10.616;2022-10-31T07:07:56;15.93;;;9.88;;
57627;SDS011;43451;49.060;10.616;2022-10-31T07:10:24;24.30;;;11.57;;
57627;SDS011;43451;49.060;10.616;2022-10-31T07:12:55;21.92;;;11.75;;
57627;SDS011;43451;49.060;10.616;2022-10-31T07:15:22;15.52;;;8.90;;
57627;SDS011;43451;49.060;10.616;2022-10-31T07:17:51;10.85;;;7.35;;
57627;SDS011;43451;49.060;10.616;2022-10-31T07:20:17;9.60;;;6.57;;
57627;SDS011;43451;49.060;10.616;2022-10-31T07:22:43;8.90;;;6.22;;
57627;SDS011;43451;49.060;10.616;2022-10-31T07:25:09;7.38;;;6.00;;
57627;SDS011;43451;49.060;10.616;2022-10-31T07:27:37;6.85;;;5.68;;
57627;SDS011;43451;49.060;10.616;2022-10-31T07:30:04;7.10;;;5.85;;
57627;SDS011;43451;49.060;10.616;2022-10-31T07:32:39;7.22;;;5.82;;
57627;SDS011;43451;49.060;10.616;2022-10-31T07:35:10;6.85;;;5.82;;
57627;SDS011;43451;49.060;10.616;2022-10-31T07:37:37;7.47;;;5.95;;
57627;SDS011;43451;49.060;10.616;2022-10-31T07:40:04;5.93;;;5.30;;
57627;SDS011;43451;49.060;10.616;2022-10-31T07:42:41;6.97;;;5.80;;
57627;SDS011;43451;49.060;10.616;2022-10-31T07:45:11;6.55;;;5.45;;
57627;SDS011;43451;49.060;10.616;2022-10-31T07:47:41;5.88;;;5.28;;
57627;SDS011;43451;49.060;10.616;2022-10-31T07:50:12;7.30;;;5.40;;
57627;SDS011;43451;49.060;10.616;2022-10-31T07:52:39;5.75;;;5.20;;
57627;SDS011;43451;49.060;10.616;2022-10-31T07:55:05;5.72;;;5.15;;
57627;SDS011;43451;49.060;10.616;2022-10-31T07:57:31;7.50;;;5.95;;
57627;SDS011;43451;49.060;10.616;2022-10-31T07:59:56;5.88;;;5.20;;
57627;SDS011;43451;49.060;10.616;2022-10-31T08:02:22;5.53;;;5.03;;
57627;SDS011;43451;49.060;10.616;2022-10-31T08:04:49;5.95;;;5.30;;
57627;SDS011;43451;49.060;10.616;2022-10-31T08:07:14;6.80;;;5.20;;
57627;SDS011;43451;49.060;10.616;2022-10-31T08:09:40;5.88;;;5.10;;
57627;SDS011;43451;49.060;10.616;2022-10-31T08:12:05;6.13;;;5.18;;
57627;SDS011;43451;49.060;10.616;2022-10-31T08:14:31;6.13;;;5.30;;
57627;SDS011;43451;49.060;10.616;2022-10-31T08:16:56;6.28;;;5.68;;
57627;SDS011;43451;49.060;10.616;2022-10-31T08:19:22;6.07;;;5.15;;
57627;SDS011;43451;49.060;10.616;2022-10-31T08:21:50;5.90;;;5.30;;
57627;SDS011;43451;49.060;10.616;2022-10-31T08:24:16;6.72;;;5.72;;
57627;SDS011;43451;49.060;10.616;2022-10-31T08:26:42;6.45;;;5.40;;
57627;SDS011;43451;49.060;10.616;2022-10-31T08:29:08;6.68;;;5.50;;
57627;SDS011;43451;49.060;10.616;2022-10-31T08:31:33;6.60;;;4.95;;
57627;SDS011;43451;49.060;10.616;2022-10-31T08:33:59;5.93;;;5.32;;
57627;SDS011;43451;49.060;10.616;2022-10-31T08:36:25;6.30;;;5.43;;
57627;SDS011;43451;49.060;10.616;2022-10-31T08:38:50;6.00;;;5.15;;
57627;SDS011;43451;49.060;10.616;2022-10-31T08:41:15;5.90;;;5.28;;
57627;SDS011;43451;49.060;10.616;2022-10-31T08:43:41;6.43;;;5.57;;
57627;SDS011;43451;49.060;10.616;2022-10-31T08:46:06;6.10;;;5.50;;
57627;SDS011;43451;49.060;10.616;2022-10-31T08:48:32;7.72;;;5.20;;
57627;SDS011;43451;49.060;10.616;2022-10-31T08:50:57;11.02;;;5.60;;
57627;SDS011;43451;49.060;10.616;2022-10-31T08:53:24;6.60;;;5.63;;
57627;SDS011;43451;49.060;10.616;2022-10-31T08:55:50;6.53;;;5.65;;
57627;SDS011;43451;49.060;10.616;2022-10-31T08:58:16;8.80;;;6.15;;
57627;SDS011;43451;49.060;10.616;2022-10-31T09:00:43;7.30;;;5.60;;
57627;SDS011;43451;49.060;10.616;2022-10-31T09:03:14;6.78;;;5.43;;
57627;SDS011;43451;49.060;10.616;2022-10-31T09:05:41;6.97;;;6.05;;
57627;SDS011;43451;49.060;10.616;2022-10-31T09:08:06;7.95;;;6.53;;
57627;SDS011;43451;49.060;10.616;2022-10-31T09:10:33;10.52;;;6.40;;
57627;SDS011;43451;49.060;10.616;2022-10-31T09:13:09;11.20;;;10.02;;
57627;SDS011;43451;49.060;10.616;2022-10-31T09:15:37;10.93;;;7.90;;
57627;SDS011;43451;49.060;10.616;2022-10-31T09:20:34;13.10;;;8.90;;
57627;SDS011;43451;49.060;10.616;2022-10-31T09:23:02;13.75;;;10.23;;
57627;SDS011;43451;49.060;10.616;2022-10-31T09:25:32;13.60;;;9.00;;
57627;SDS011;43451;49.060;10.616;2022-10-31T09:28:00;11.75;;;8.32;;
57627;SDS011;43451;49.060;10.616;2022-10-31T09:30:27;15.83;;;8.70;;
57627;SDS011;43451;49.060;10.616;2022-10-31T09:33:05;11.75;;;8.43;;
57627;SDS011;43451;49.060;10.616;2022-10-31T09:35:32;12.90;;;9.30;;
57627;SDS011;43451;49.060;10.616;2022-10-31T09:38:03;11.18;;;8.48;;
57627;SDS011;43451;49.060;10.616;2022-10-31T09:54:51;13.30;;;9.70;;
57627;SDS011;43451;49.060;10.616;2022-10-31T09:57:27;17.17;;;10.18;;
57627;SDS011;43451;49.060;10.616;2022-10-31T09:59:55;21.23;;;10.63;;
57627;SDS011;43451;49.060;10.616;2022-10-31T10:05:04;14.50;;;9.98;;
57627;SDS011;43451;49.060;10.616;2022-10-31T10:10:23;15.20;;;9.80;;
57627;SDS011;43451;49.060;10.616;2022-10-31T10:13:09;17.10;;;10.07;;
57627;SDS011;43451;49.060;10.616;2022-10-31T10:27:05;17.95;;;9.73;;
57627;SDS011;43451;49.060;10.616;2022-10-31T10:29:43;14.15;;;8.48;;
57627;SDS011;43451;49.060;10.616;2022-10-31T10:32:23;12.80;;;8.20;;
57627;SDS011;43451;49.060;10.616;2022-10-31T10:34:51;13.25;;;9.27;;
57627;SDS011;43451;49.060;10.616;2022-10-31T10:39:49;13.55;;;9.02;;
57627;SDS011;43451;49.060;10.616;2022-10-31T10:42:20;12.25;;;8.38;;
57627;SDS011;43451;49.060;10.616;2022-10-31T10:45:18;14.43;;;8.30;;
57627;SDS011;43451;49.060;10.616;2022-10-31T10:50:51;14.10;;;8.02;;
57627;SDS011;43451;49.060;10.616;2022-10-31T10:58:44;12.32;;;7.88;;
57627;SDS011;43451;49.060;10.616;2022-10-31T11:01:14;14.18;;;7.90;;
57627;SDS011;43451;49.060;10.616;2022-10-31T11:03:40;16.02;;;7.20;;
57627;SDS011;43451;49.060;10.616;2022-10-31T11:06:17;13.88;;;8.40;;
57627;SDS011;43451;49.060;10.616;2022-10-31T11:08:50;12.30;;;7.65;;
57627;SDS011;43451;49.060;10.616;2022-10-31T11:13:43;12.68;;;7.72;;
57627;SDS011;43451;49.060;10.616;2022-10-31T11:18:51;12.82;;;7.97;;
57627;SDS011;43451;49.060;10.616;2022-10-31T11:21:27;11.93;;;7.75;;
57627;SDS011;43451;49.060;10.616;2022-10-31T11:26:37;12.07;;;8.00;;
57627;SDS011;43451;49.060;10.616;2022-10-31T11:31:35;15.05;;;7.68;;
57627;SDS011;43451;49.060;10.616;2022-10-31T11:37:14;14.30;;;8.00;;
57627;SDS011;43451;49.060;10.616;2022-10-31T11:39:43;11.32;;;7.20;;
57627;SDS011;43451;49.060;10.616;2022-10-31T11:42:19;10.13;;;7.18;;
57627;SDS011;43451;49.060;10.616;2022-10-31T11:44:51;11.38;;;7.32;;
57627;SDS011;43451;49.060;10.616;2022-10-31T11:47:20;11.00;;;7.50;;
57627;SDS011;43451;49.060;10.616;2022-10-31T11:49:51;9.50;;;7.22;;
57627;SDS011;43451;49.060;10.616;2022-10-31T11:52:22;12.00;;;7.13;;
57627;SDS011;43451;49.060;10.616;2022-10-31T11:57:45;13.90;;;7.85;;
57627;SDS011;43451;49.060;10.616;2022-10-31T12:05:51;13.25;;;7.57;;
57627;SDS011;43451;49.060;10.616;2022-10-31T12:08:26;11.23;;;7.70;;
57627;SDS011;43451;49.060;10.616;2022-10-31T12:11:17;12.52;;;7.50;;
57627;SDS011;43451;49.060;10.616;2022-10-31T12:25:44;14.20;;;7.18;;
57627;SDS011;43451;49.060;10.616;2022-10-31T12:31:29;11.13;;;7.93;;
57627;SDS011;43451;49.060;10.616;2022-10-31T12:36:46;17.58;;;8.13;;
57627;SDS011;43451;49.060;10.616;2022-10-31T12:39:37;15.23;;;7.75;;
57627;SDS011;43451;49.060;10.616;2022-10-31T12:58:36;16.45;;;8.10;;
57627;SDS011;43451;49.060;10.616;2022-10-31T13:06:48;15.82;;;8.55;;
57627;SDS011;43451;49.060;10.616;2022-10-31T13:09:20;14.25;;;8.48;;
57627;SDS011;43451;49.060;10.616;2022-10-31T13:11:56;13.65;;;8.50;;
57627;SDS011;43451;49.060;10.616;2022-10-31T13:14:27;14.63;;;8.85;;
57627;SDS011;43451;49.060;10.616;2022-10-31T13:17:02;17.92;;;8.98;;
57627;SDS011;43451;49.060;10.616;2022-10-31T13:19:41;12.48;;;9.10;;
57627;SDS011;43451;49.060;10.616;2022-10-31T13:24:59;16.33;;;9.02;;
57627;SDS011;43451;49.060;10.616;2022-10-31T13:27:42;14.98;;;8.88;;
57627;SDS011;43451;49.060;10.616;2022-10-31T13:30:21;18.23;;;9.18;;
57627;SDS011;43451;49.060;10.616;2022-10-31T13:32:53;18.08;;;9.43;;
57627;SDS011;43451;49.060;10.616;2022-10-31T13:51:25;13.23;;;9.60;;
57627;SDS011;43451;49.060;10.616;2022-10-31T13:53:57;14.38;;;9.98;;
57627;SDS011;43451;49.060;10.616;2022-10-31T13:56:32;14.82;;;9.27;;
57627;SDS011;43451;49.060;10.616;2022-10-31T13:59:00;17.55;;;11.77;;
57627;SDS011;43451;49.060;10.616;2022-10-31T14:01:34;14.73;;;9.13;;
57627;SDS011;43451;49.060;10.616;2022-10-31T14:04:02;10.35;;;8.57;;
57627;SDS011;43451;49.060;10.616;2022-10-31T14:06:50;14.85;;;9.35;;
57627;SDS011;43451;49.060;10.616;2022-10-31T14:09:27;16.47;;;9.20;;
57627;SDS011;43451;49.060;10.616;2022-10-31T14:12:03;11.20;;;9.60;;
57627;SDS011;43451;49.060;10.616;2022-10-31T14:14:33;11.43;;;8.70;;
57627;SDS011;43451;49.060;10.616;2022-10-31T14:17:05;13.07;;;9.25;;
57627;SDS011;43451;49.060;10.616;2022-10-31T14:19:31;17.05;;;9.82;;
57627;SDS011;43451;49.060;10.616;2022-10-31T14:21:56;13.00;;;9.55;;
57627;SDS011;43451;49.060;10.616;2022-10-31T14:27:00;14.68;;;8.73;;
57627;SDS011;43451;49.060;10.616;2022-10-31T14:29:29;14.05;;;8.60;;
57627;SDS011;43451;49.060;10.616;2022-10-31T14:34:33;17.65;;;8.60;;
57627;SDS011;43451;49.060;10.616;2022-10-31T14:47:57;15.45;;;8.95;;
57627;SDS011;43451;49.060;10.616;2022-10-31T14:55:43;16.70;;;9.20;;
57627;SDS011;43451;49.060;10.616;2022-10-31T14:58:12;17.27;;;8.80;;
57627;SDS011;43451;49.060;10.616;2022-10-31T15:00:43;14.40;;;8.90;;
57627;SDS011;43451;49.060;10.616;2022-10-31T15:05:48;14.02;;;9.82;;
57627;SDS011;43451;49.060;10.616;2022-10-31T15:11:20;18.50;;;12.75;;
57627;SDS011;43451;49.060;10.616;2022-10-31T15:16:27;15.40;;;11.32;;
57627;SDS011;43451;49.060;10.616;2022-10-31T15:19:07;16.65;;;11.90;;
57627;SDS011;43451;49.060;10.616;2022-10-31T15:21:35;19.40;;;12.55;;
57627;SDS011;43451;49.060;10.616;2022-10-31T15:24:10;18.05;;;11.52;;
57627;SDS011;43451;49.060;10.616;2022-10-31T15:26:38;19.30;;;11.98;;
57627;SDS011;43451;49.060;10.616;2022-10-31T15:29:12;18.15;;;12.00;;
57627;SDS011;43451;49.060;10.616;2022-10-31T15:31:48;18.55;;;12.70;;
57627;SDS011;43451;49.060;10.616;2022-10-31T15:34:39;21.70;;;12.50;;
57627;SDS011;43451;49.060;10.616;2022-10-31T15:37:13;20.83;;;11.82;;
57627;SDS011;43451;49.060;10.616;2022-10-31T15:39:41;17.65;;;12.02;;
57627;SDS011;43451;49.060;10.616;2022-10-31T15:42:20;20.00;;;11.77;;
57627;SDS011;43451;49.060;10.616;2022-10-31T15:47:25;20.20;;;13.23;;
57627;SDS011;43451;49.060;10.616;2022-10-31T15:49:55;18.20;;;11.55;;
57627;SDS011;43451;49.060;10.616;2022-10-31T15:55:20;24.20;;;12.15;;
57627;SDS011;43451;49.060;10.616;2022-10-31T15:57:48;25.10;;;12.98;;
57627;SDS011;43451;49.060;10.616;2022-10-31T16:00:29;25.50;;;13.48;;
57627;SDS011;43451;49.060;10.616;2022-10-31T16:03:07;21.55;;;12.65;;
57627;SDS011;43451;49.060;10.616;2022-10-31T16:05:43;17.95;;;12.20;;
57627;SDS011;43451;49.060;10.616;2022-10-31T16:13:37;20.73;;;14.30;;
57627;SDS011;43451;49.060;10.616;2022-10-31T16:16:14;18.13;;;12.57;;
57627;SDS011;43451;49.060;10.616;2022-10-31T16:18:41;11.30;;;9.82;;
57627;SDS011;43451;49.060;10.616;2022-10-31T16:21:07;16.65;;;11.48;;
57627;SDS011;43451;49.060;10.616;2022-10-31T16:23:34;13.93;;;12.13;;
57627;SDS011;43451;49.060;10.616;2022-10-31T16:26:07;14.02;;;10.98;;
57627;SDS011;43451;49.060;10.616;2022-10-31T16:28:33;17.50;;;12.38;;
57627;SDS011;43451;49.060;10.616;2022-10-31T16:31:00;19.63;;;13.52;;
57627;SDS011;43451;49.060;10.616;2022-10-31T16:33:29;19.45;;;14.05;;
57627;SDS011;43451;49.060;10.616;2022-10-31T16:36:01;23.52;;;15.75;;
57627;SDS011;43451;49.060;10.616;2022-10-31T16:38:52;23.02;;;15.98;;
57627;SDS011;43451;49.060;10.616;2022-10-31T16:41:18;12.38;;;9.18;;
57627;SDS011;43451;49.060;10.616;2022-10-31T16:43:44;12.35;;;10.02;;
57627;SDS011;43451;49.060;10.616;2022-10-31T16:46:14;15.88;;;12.15;;
57627;SDS011;43451;49.060;10.616;2022-10-31T16:48:42;15.32;;;12.18;;
57627;SDS011;43451;49.060;10.616;2022-10-31T16:51:07;17.83;;;13.02;;
57627;SDS011;43451;49.060;10.616;2022-10-31T16:53:33;19.58;;;13.57;;
57627;SDS011;43451;49.060;10.616;2022-10-31T16:55:59;15.13;;;12.00;;
57627;SDS011;43451;49.060;10.616;2022-10-31T16:58:28;19.63;;;13.52;;
57627;SDS011;43451;49.060;10.616;2022-10-31T17:00:55;19.83;;;13.02;;
57627;SDS011;43451;49.060;10.616;2022-10-31T17:03:22;22.42;;;13.68;;
57627;SDS011;43451;49.060;10.616;2022-10-31T17:05:47;18.50;;;14.40;;
57627;SDS011;43451;49.060;10.616;2022-10-31T17:08:13;17.90;;;13.32;;
57627;SDS011;43451;49.060;10.616;2022-10-31T17:10:39;22.85;;;15.52;;
57627;SDS011;43451;49.060;10.616;2022-10-31T17:15:40;24.65;;;16.60;;
57627;SDS011;43451;49.060;10.616;2022-10-31T17:18:11;23.05;;;16.50;;
57627;SDS011;43451;49.060;10.616;2022-10-31T17:20:38;24.42;;;16.60;;
57627;SDS011;43451;49.060;10.616;2022-10-31T17:23:03;23.67;;;14.80;;
57627;SDS011;43451;49.060;10.616;2022-10-31T17:25:29;15.48;;;11.32;;
57627;SDS011;43451;49.060;10.616;2022-10-31T17:27:56;18.35;;;12.73;;
57627;SDS011;43451;49.060;10.616;2022-10-31T17:30:22;13.35;;;10.60;;
57627;SDS011;43451;49.060;10.616;2022-10-31T17:32:48;15.00;;;11.30;;
57627;SDS011;43451;49.060;10.616;2022-10-31T17:35:14;22.52;;;15.10;;
57627;SDS011;43451;49.060;10.616;2022-10-31T17:37:41;21.02;;;13.88;;
57627;SDS011;43451;49.060;10.616;2022-10-31T17:40:08;17.67;;;13.18;;
57627;SDS011;43451;49.060;10.616;2022-10-31T17:42:35;17.70;;;13.27;;
57627;SDS011;43451;49.060;10.616;2022-10-31T17:45:01;23.08;;;15.25;;
57627;SDS011;43451;49.060;10.616;2022-10-31T17:47:27;22.10;;;14.00;;
57627;SDS011;43451;49.060;10.616;2022-10-31T17:49:52;24.70;;;15.60;;
57627;SDS011;43451;49.060;10.616;2022-10-31T17:52:18;31.85;;;18.50;;
57627;SDS011;43451;49.060;10.616;2022-10-31T17:54:44;22.38;;;15.88;;
57627;SDS011;43451;49.060;10.616;2022-10-31T17:57:09;17.52;;;12.07;;
57627;SDS011;43451;49.060;10.616;2022-10-31T17:59:35;16.23;;;11.95;;
57627;SDS011;43451;49.060;10.616;2022-10-31T18:02:00;18.52;;;12.57;;
57627;SDS011;43451;49.060;10.616;2022-10-31T18:04:27;27.23;;;17.17;;
57627;SDS011;43451;49.060;10.616;2022-10-31T18:06:52;23.23;;;16.10;;
57627;SDS011;43451;49.060;10.616;2022-10-31T18:09:18;13.13;;;10.15;;
57627;SDS011;43451;49.060;10.616;2022-10-31T18:11:44;17.83;;;12.43;;
57627;SDS011;43451;49.060;10.616;2022-10-31T18:14:09;25.95;;;17.30;;